createdAt,value
2018-03-25T00:00:11.300Z,74.54
2018-03-25T00:01:11.337Z,74.35
2018-03-25T00:02:11.344Z,74.54
2018-03-25T00:03:11.378Z,74.35
2018-03-25T00:04:11.385Z,74.45
2018-03-25T00:05:11.408Z,74.45
2018-03-25T00:06:11.437Z,75.31
2018-03-25T00:07:11.448Z,75.40
2018-03-25T00:08:11.468Z,75.11
2018-03-25T00:09:11.496Z,75.49
2018-03-25T00:10:11.523Z,75.21
2018-03-25T00:11:11.551Z,75.49
2018-03-25T00:12:11.569Z,75.78
2018-03-25T00:13:11.590Z,75.40
2018-03-25T00:14:11.606Z,75.59
2018-03-25T00:15:11.629Z,75.49
2018-03-25T00:16:11.644Z,75.49
2018-03-25T00:17:11.669Z,75.31
2018-03-25T00:18:11.691Z,75.40
2018-03-25T00:19:11.715Z,75.78
2018-03-25T00:20:11.741Z,75.96
2018-03-25T00:21:11.768Z,75.78
2018-03-25T00:22:11.776Z,75.40
2018-03-25T00:23:11.799Z,75.59
2018-03-25T00:24:11.825Z,75.49
2018-03-25T00:25:11.841Z,75.87
2018-03-25T00:26:11.854Z,75.78
2018-03-25T00:27:11.876Z,75.40
2018-03-25T00:28:11.911Z,75.68
2018-03-25T00:29:11.923Z,75.87
2018-03-25T00:30:11.943Z,75.96
2018-03-25T00:31:11.970Z,75.59
2018-03-25T00:32:11.999Z,75.40
2018-03-25T00:33:12.014Z,75.68
2018-03-25T00:34:12.035Z,75.31
2018-03-25T00:35:12.052Z,75.68
2018-03-25T00:36:12.068Z,75.87
2018-03-25T00:37:12.090Z,75.87
2018-03-25T00:38:12.111Z,75.68
2018-03-25T00:39:12.148Z,76.15
2018-03-25T00:40:12.160Z,75.40
2018-03-25T00:41:12.179Z,75.40
2018-03-25T00:42:12.209Z,75.40
2018-03-25T00:43:12.221Z,75.87
2018-03-25T00:44:12.238Z,75.87
2018-03-25T00:45:12.323Z,76.15
2018-03-25T00:46:12.284Z,75.78
2018-03-25T00:47:12.305Z,75.68
2018-03-25T00:48:12.353Z,75.78
2018-03-25T00:49:12.360Z,76.63
2018-03-25T00:50:12.388Z,76.63
2018-03-25T00:51:12.387Z,76.82
2018-03-25T00:52:12.408Z,76.63
2018-03-25T00:53:12.428Z,76.63
2018-03-25T00:54:12.451Z,77.01
2018-03-25T00:55:12.477Z,76.82
2018-03-25T00:56:12.512Z,76.73
2018-03-25T00:57:12.516Z,76.44
2018-03-25T00:58:12.539Z,76.25
2018-03-25T00:59:12.566Z,76.73
2018-03-25T01:00:12.577Z,76.73
2018-03-25T01:01:12.601Z,76.82
2018-03-25T01:02:12.624Z,76.44
2018-03-25T01:03:12.645Z,77.39
2018-03-25T01:04:12.665Z,77.54
2018-03-25T01:05:12.685Z,77.64
2018-03-25T01:06:12.712Z,77.64
2018-03-25T01:07:12.745Z,77.64
2018-03-25T01:08:12.762Z,77.64
2018-03-25T01:09:12.765Z,77.67
2018-03-25T01:10:12.793Z,77.83
2018-03-25T01:11:12.821Z,77.73
2018-03-25T01:12:12.838Z,77.54
2018-03-25T01:13:12.854Z,77.64
2018-03-25T01:14:12.878Z,77.54
2018-03-25T01:15:12.902Z,77.54
2018-03-25T01:16:12.921Z,77.73
2018-03-25T01:17:12.940Z,77.73
2018-03-25T01:18:12.969Z,77.45
2018-03-25T01:19:12.985Z,77.54
2018-03-25T01:20:13.000Z,77.54
2018-03-25T01:21:13.027Z,77.92
2018-03-25T01:22:13.053Z,77.64
2018-03-25T01:23:13.066Z,77.64
2018-03-25T01:24:13.084Z,77.64
2018-03-25T01:25:13.106Z,77.73
2018-03-25T01:26:13.137Z,77.64
2018-03-25T01:27:13.149Z,77.73
2018-03-25T01:28:13.165Z,77.92
2018-03-25T01:29:13.229Z,77.92
2018-03-25T01:30:13.208Z,78.02
2018-03-25T01:31:13.231Z,77.83
2018-03-25T01:32:13.250Z,77.83
2018-03-25T01:33:13.274Z,77.92
2018-03-25T01:34:13.296Z,77.92
2018-03-25T01:35:13.315Z,77.92
2018-03-25T01:36:13.341Z,78.39
2018-03-25T01:37:13.362Z,78.11
2018-03-25T01:38:13.377Z,78.20
2018-03-25T01:39:13.398Z,78.20
2018-03-25T01:40:13.434Z,78.11
2018-03-25T01:41:13.448Z,78.39
2018-03-25T01:42:13.457Z,78.20
2018-03-25T01:43:13.495Z,78.11
2018-03-25T01:44:13.503Z,78.20
2018-03-25T01:45:13.528Z,78.02
2018-03-25T01:46:13.549Z,78.20
2018-03-25T01:47:13.576Z,77.92
2018-03-25T01:48:13.595Z,78.02
2018-03-25T01:49:13.608Z,77.73
2018-03-25T01:50:13.631Z,78.20
2018-03-25T01:51:13.652Z,78.02
2018-03-25T01:52:13.670Z,77.92
2018-03-25T01:53:13.688Z,78.20
2018-03-25T01:54:13.710Z,78.30
2018-03-25T01:55:13.755Z,78.58
2018-03-25T01:56:13.760Z,78.30
2018-03-25T01:57:14.337Z,78.39
2018-03-25T01:58:13.791Z,78.49
2018-03-25T01:59:13.824Z,78.49
2018-03-25T02:00:13.846Z,78.58
2018-03-25T02:01:13.858Z,78.77
2018-03-25T02:02:13.887Z,78.77
2018-03-25T02:03:13.899Z,78.87
2018-03-25T02:04:13.929Z,78.67
2018-03-25T02:05:13.945Z,78.30
2018-03-25T02:06:13.970Z,78.77
2018-03-25T02:07:13.987Z,78.58
2018-03-25T02:08:14.000Z,78.96
2018-03-25T02:09:14.020Z,78.87
2018-03-25T02:10:14.173Z,79.06
2018-03-25T02:11:14.076Z,78.96
2018-03-25T02:12:14.086Z,78.96
2018-03-25T02:13:14.105Z,78.77
2018-03-25T02:14:14.127Z,79.15
2018-03-25T02:15:14.161Z,78.87
2018-03-25T02:16:14.167Z,79.25
2018-03-25T02:17:14.187Z,79.06
2018-03-25T02:18:14.207Z,79.25
2018-03-25T02:19:14.232Z,79.06
2018-03-25T02:20:14.250Z,78.77
2018-03-25T02:21:14.395Z,79.15
2018-03-25T02:22:14.293Z,79.06
2018-03-25T02:23:14.327Z,78.96
2018-03-25T02:24:14.332Z,79.34
2018-03-25T02:25:14.375Z,79.44
2018-03-25T02:26:14.379Z,79.25
2018-03-25T02:27:14.395Z,79.34
2018-03-25T02:28:14.419Z,78.96
2018-03-25T02:29:14.444Z,78.96
2018-03-25T02:30:14.462Z,79.06
2018-03-25T02:31:14.482Z,79.44
2018-03-25T02:32:14.498Z,79.34
2018-03-25T02:33:14.518Z,79.34
2018-03-25T02:34:14.572Z,79.34
2018-03-25T02:35:14.562Z,79.63
2018-03-25T02:36:14.605Z,79.49
2018-03-25T02:37:14.603Z,79.53
2018-03-25T02:38:14.644Z,79.25
2018-03-25T02:39:14.655Z,80.00
2018-03-25T02:40:14.666Z,79.49
2018-03-25T02:41:14.690Z,79.96
2018-03-25T02:42:14.705Z,80.00
2018-03-25T02:43:14.726Z,79.87
2018-03-25T02:44:14.750Z,79.96
2018-03-25T02:45:14.774Z,79.96
2018-03-25T02:46:14.793Z,79.58
2018-03-25T02:47:14.814Z,79.72
2018-03-25T02:48:14.832Z,79.96
2018-03-25T02:49:14.850Z,79.68
2018-03-25T02:50:14.880Z,79.96
2018-03-25T02:51:14.893Z,79.96
2018-03-25T02:52:14.916Z,79.77
2018-03-25T02:53:14.940Z,80.34
2018-03-25T02:54:14.956Z,79.77
2018-03-25T02:55:14.980Z,79.30
2018-03-25T02:56:14.997Z,79.58
2018-03-25T02:57:15.026Z,79.11
2018-03-25T02:58:15.037Z,79.06
2018-03-25T02:59:15.065Z,78.96
2018-03-25T03:00:15.078Z,79.39
2018-03-25T03:01:15.235Z,79.11
2018-03-25T03:02:15.128Z,79.25
2018-03-25T03:03:15.136Z,79.21
2018-03-25T03:04:15.170Z,79.39
2018-03-25T03:05:15.187Z,79.49
2018-03-25T03:06:15.201Z,79.21
2018-03-25T03:07:15.230Z,80.00
2018-03-25T03:08:15.243Z,79.77
2018-03-25T03:09:15.271Z,79.91
2018-03-25T03:10:15.280Z,79.96
2018-03-25T03:11:15.301Z,80.10
2018-03-25T03:12:15.335Z,80.06
2018-03-25T03:13:15.356Z,79.77
2018-03-25T03:14:15.373Z,80.06
2018-03-25T03:15:15.388Z,79.96
2018-03-25T03:16:15.416Z,80.15
2018-03-25T03:17:15.436Z,80.44
2018-03-25T03:18:15.445Z,79.87
2018-03-25T03:19:15.464Z,80.15
2018-03-25T03:20:15.482Z,80.34
2018-03-25T03:21:15.506Z,80.34
2018-03-25T03:22:15.532Z,79.87
2018-03-25T03:23:15.544Z,79.96
2018-03-25T03:24:15.570Z,79.96
2018-03-25T03:25:15.594Z,79.87
2018-03-25T03:26:15.615Z,79.87
2018-03-25T03:27:15.648Z,79.96
2018-03-25T03:28:15.651Z,80.06
2018-03-25T03:29:15.667Z,79.77
2018-03-25T03:30:15.713Z,79.87
2018-03-25T03:31:15.715Z,79.77
2018-03-25T03:32:15.745Z,79.87
2018-03-25T03:33:15.759Z,80.53
2018-03-25T03:34:15.771Z,79.96
2018-03-25T03:35:15.799Z,79.96
2018-03-25T03:36:15.816Z,80.06
2018-03-25T03:37:15.834Z,79.87
2018-03-25T03:38:15.854Z,80.06
2018-03-25T03:39:15.874Z,80.25
2018-03-25T03:40:15.894Z,80.34
2018-03-25T03:41:15.912Z,80.63
2018-03-25T03:42:15.941Z,80.25
2018-03-25T03:43:15.955Z,80.82
2018-03-25T03:44:15.976Z,80.06
2018-03-25T03:45:15.998Z,80.53
2018-03-25T03:46:16.020Z,80.63
2018-03-25T03:47:16.054Z,80.44
2018-03-25T03:48:16.065Z,80.86
2018-03-25T03:49:16.083Z,80.86
2018-03-25T03:50:16.113Z,80.72
2018-03-25T03:51:16.118Z,79.87
2018-03-25T03:52:16.144Z,80.29
2018-03-25T03:53:16.164Z,79.77
2018-03-25T03:54:16.183Z,80.15
2018-03-25T03:55:16.207Z,80.25
2018-03-25T03:56:16.221Z,80.34
2018-03-25T03:57:16.240Z,79.87
2018-03-25T03:58:16.266Z,79.77
2018-03-25T03:59:16.281Z,79.77
2018-03-25T04:00:16.303Z,79.87
2018-03-25T04:01:16.829Z,80.25
2018-03-25T04:02:16.344Z,80.63
2018-03-25T04:03:16.372Z,80.25
2018-03-25T04:04:16.384Z,80.63
2018-03-25T04:05:16.405Z,80.63
2018-03-25T04:06:16.432Z,80.82
2018-03-25T04:07:16.448Z,80.15
2018-03-25T04:08:16.480Z,81.01
2018-03-25T04:09:16.489Z,80.63
2018-03-25T04:10:16.515Z,80.15
2018-03-25T04:11:16.527Z,80.06
2018-03-25T04:12:16.560Z,80.53
2018-03-25T04:13:16.584Z,80.63
2018-03-25T04:14:16.606Z,80.63
2018-03-25T04:15:16.611Z,80.44
2018-03-25T04:16:16.634Z,80.63
2018-03-25T04:17:16.650Z,80.53
2018-03-25T04:18:16.679Z,80.15
2018-03-25T04:19:16.692Z,80.15
2018-03-25T04:20:16.708Z,81.01
2018-03-25T04:21:16.751Z,81.20
2018-03-25T04:22:16.750Z,81.20
2018-03-25T04:23:16.773Z,81.10
2018-03-25T04:24:16.795Z,81.01
2018-03-25T04:25:16.818Z,81.01
2018-03-25T04:26:16.834Z,81.20
2018-03-25T04:27:16.852Z,81.10
2018-03-25T04:28:16.870Z,81.20
2018-03-25T04:29:16.896Z,81.10
2018-03-25T04:30:16.922Z,80.53
2018-03-25T04:31:16.951Z,80.63
2018-03-25T04:32:16.957Z,80.53
2018-03-25T04:33:16.974Z,80.53
2018-03-25T04:34:16.996Z,81.48
2018-03-25T04:35:17.017Z,80.63
2018-03-25T04:36:17.036Z,80.63
2018-03-25T04:37:17.061Z,80.44
2018-03-25T04:38:17.074Z,80.72
2018-03-25T04:39:17.091Z,80.06
2018-03-25T04:40:17.119Z,79.96
2018-03-25T04:41:17.135Z,80.63
2018-03-25T04:42:17.157Z,80.53
2018-03-25T04:43:17.176Z,80.63
2018-03-25T04:44:17.201Z,80.25
2018-03-25T04:45:17.226Z,80.44
2018-03-25T04:46:17.241Z,81.10
2018-03-25T04:47:17.305Z,80.34
2018-03-25T04:48:17.278Z,80.53
2018-03-25T04:49:17.311Z,80.63
2018-03-25T04:50:17.316Z,80.63
2018-03-25T04:51:17.348Z,80.72
2018-03-25T04:52:17.366Z,80.34
2018-03-25T04:53:17.402Z,80.44
2018-03-25T04:54:17.405Z,80.63
2018-03-25T04:55:17.426Z,80.53
2018-03-25T04:56:17.442Z,80.63
2018-03-25T04:57:17.466Z,80.63
2018-03-25T04:58:17.484Z,80.44
2018-03-25T04:59:17.503Z,80.53
2018-03-25T05:00:17.525Z,80.44
2018-03-25T05:01:17.547Z,80.72
2018-03-25T05:02:17.570Z,80.63
2018-03-25T05:04:17.602Z,80.44
2018-03-25T05:05:17.628Z,80.53
2018-03-25T05:06:17.649Z,80.63
2018-03-25T05:07:17.672Z,80.44
2018-03-25T05:08:17.682Z,80.34
2018-03-25T05:09:17.702Z,80.06
2018-03-25T05:10:17.723Z,81.29
2018-03-25T05:11:17.753Z,80.72
2018-03-25T05:12:17.766Z,80.15
2018-03-25T05:13:17.787Z,80.72
2018-03-25T05:14:17.804Z,80.53
2018-03-25T05:15:17.920Z,80.44
2018-03-25T05:16:17.870Z,80.72
2018-03-25T05:17:17.874Z,80.63
2018-03-25T05:18:17.897Z,80.53
2018-03-25T05:19:17.906Z,79.68
2018-03-25T05:20:17.923Z,80.06
2018-03-25T05:21:17.946Z,79.87
2018-03-25T05:22:17.972Z,80.15
2018-03-25T05:23:17.983Z,80.25
2018-03-25T05:24:18.021Z,80.15
2018-03-25T05:25:18.032Z,80.15
2018-03-25T05:26:18.049Z,80.25
2018-03-25T05:27:18.065Z,80.25
2018-03-25T05:28:18.104Z,80.25
2018-03-25T05:29:18.106Z,80.06
2018-03-25T05:30:18.132Z,80.06
2018-03-25T05:31:18.149Z,80.25
2018-03-25T05:32:18.178Z,80.34
2018-03-25T05:33:18.191Z,79.68
2018-03-25T05:34:18.209Z,80.15
2018-03-25T05:35:18.234Z,79.68
2018-03-25T05:36:18.256Z,79.68
2018-03-25T05:37:18.272Z,79.77
2018-03-25T05:38:18.292Z,79.77
2018-03-25T05:39:18.832Z,79.77
2018-03-25T05:40:18.329Z,79.68
2018-03-25T05:41:18.349Z,79.96
2018-03-25T05:42:18.378Z,79.96
2018-03-25T05:43:18.410Z,80.06
2018-03-25T05:44:18.428Z,79.96
2018-03-25T05:45:18.444Z,79.77
2018-03-25T05:46:18.452Z,80.25
2018-03-25T05:47:18.482Z,79.21
2018-03-25T05:48:18.504Z,79.39
2018-03-25T05:49:18.516Z,79.39
2018-03-25T05:50:18.538Z,79.49
2018-03-25T05:51:18.556Z,79.25
2018-03-25T05:52:18.682Z,79.30
2018-03-25T05:53:18.592Z,79.58
2018-03-25T05:54:19.331Z,79.30
2018-03-25T05:55:18.654Z,79.49
2018-03-25T05:56:18.659Z,79.49
2018-03-25T05:57:18.676Z,79.58
2018-03-25T05:58:18.701Z,79.11
2018-03-25T05:59:18.717Z,79.11
2018-03-25T06:00:18.746Z,78.83
2018-03-25T06:01:18.763Z,78.83
2018-03-25T06:02:18.914Z,79.21
2018-03-25T06:03:18.799Z,79.15
2018-03-25T06:04:18.827Z,79.06
2018-03-25T06:05:18.844Z,79.39
2018-03-25T06:06:18.864Z,79.25
2018-03-25T06:07:18.892Z,78.96
2018-03-25T06:08:18.905Z,78.77
2018-03-25T06:09:18.925Z,78.20
2018-03-25T06:10:18.951Z,78.02
2018-03-25T06:11:18.966Z,78.11
2018-03-25T06:12:18.982Z,78.11
2018-03-25T06:13:19.016Z,78.20
2018-03-25T06:14:19.026Z,78.02
2018-03-25T06:15:19.052Z,77.83
2018-03-25T06:16:19.077Z,77.54
2018-03-25T06:17:19.094Z,77.54
2018-03-25T06:18:19.116Z,77.54
2018-03-25T06:19:19.162Z,77.54
2018-03-25T06:20:19.157Z,77.45
2018-03-25T06:21:19.172Z,77.45
2018-03-25T06:22:19.192Z,76.97
2018-03-25T06:23:19.219Z,77.06
2018-03-25T06:24:19.239Z,77.16
2018-03-25T06:25:19.251Z,77.35
2018-03-25T06:26:19.339Z,77.06
2018-03-25T06:27:19.289Z,77.25
2018-03-25T06:28:19.320Z,77.16
2018-03-25T06:29:19.333Z,77.25
2018-03-25T06:30:19.360Z,77.25
2018-03-25T06:31:19.385Z,76.97
2018-03-25T06:32:19.399Z,77.35
2018-03-25T06:33:19.414Z,76.87
2018-03-25T06:34:19.443Z,76.87
2018-03-25T06:35:19.464Z,77.06
2018-03-25T06:36:19.485Z,76.50
2018-03-25T06:37:19.501Z,76.59
2018-03-25T06:38:19.523Z,76.97
2018-03-25T06:39:19.538Z,77.06
2018-03-25T06:40:19.563Z,76.50
2018-03-25T06:41:19.590Z,76.68
2018-03-25T06:42:19.602Z,76.68
2018-03-25T06:43:19.624Z,76.21
2018-03-25T06:44:19.649Z,76.40
2018-03-25T06:45:19.675Z,76.59
2018-03-25T06:46:19.686Z,76.59
2018-03-25T06:47:19.711Z,76.50
2018-03-25T06:48:19.736Z,76.68
2018-03-25T06:49:19.749Z,76.21
2018-03-25T06:50:19.767Z,75.84
2018-03-25T06:51:19.799Z,76.68
2018-03-25T06:52:19.814Z,76.03
2018-03-25T06:53:19.836Z,76.78
2018-03-25T06:54:19.855Z,76.68
2018-03-25T06:55:19.909Z,76.50
2018-03-25T06:56:19.903Z,76.03
2018-03-25T06:57:19.915Z,76.21
2018-03-25T06:58:19.946Z,76.03
2018-03-25T06:59:19.971Z,76.21
2018-03-25T07:00:19.993Z,75.87
2018-03-25T07:01:19.999Z,76.03
2018-03-25T07:02:20.119Z,75.36
2018-03-25T07:03:20.054Z,75.45
2018-03-25T07:04:20.835Z,75.87
2018-03-25T07:05:20.091Z,75.68
2018-03-25T07:06:20.162Z,75.68
2018-03-25T07:07:20.139Z,75.59
2018-03-25T07:08:20.158Z,75.68
2018-03-25T07:09:20.181Z,75.21
2018-03-25T07:10:20.191Z,75.02
2018-03-25T07:11:20.217Z,74.73
2018-03-25T07:12:20.235Z,75.02
2018-03-25T07:13:20.264Z,75.21
2018-03-25T07:14:20.293Z,73.88
2018-03-25T07:15:20.300Z,74.54
2018-03-25T07:16:20.321Z,73.88
2018-03-25T07:17:20.337Z,75.31
2018-03-25T07:18:20.366Z,75.21
2018-03-25T07:19:20.424Z,75.21
2018-03-25T07:20:20.418Z,74.26
2018-03-25T07:21:20.422Z,74.26
2018-03-25T07:22:20.453Z,75.21
2018-03-25T07:23:20.477Z,75.11
2018-03-25T07:24:20.495Z,75.21
2018-03-25T07:25:20.519Z,75.11
2018-03-25T07:26:20.590Z,74.16
2018-03-25T07:27:20.558Z,74.54
2018-03-25T07:28:20.574Z,74.54
2018-03-25T07:29:20.601Z,74.26
2018-03-25T07:30:20.743Z,74.64
2018-03-25T07:31:20.643Z,73.88
2018-03-25T07:32:21.335Z,74.07
2018-03-25T07:33:20.684Z,74.07
2018-03-25T07:34:20.715Z,73.03
2018-03-25T07:35:20.749Z,73.97
2018-03-25T07:36:20.738Z,74.26
2018-03-25T07:37:20.761Z,73.97
2018-03-25T07:38:20.781Z,73.22
2018-03-25T07:39:20.802Z,73.22
2018-03-25T07:40:20.827Z,73.41
2018-03-25T07:41:20.856Z,73.97
2018-03-25T07:42:20.875Z,74.35
2018-03-25T07:43:20.936Z,74.49
2018-03-25T07:44:20.915Z,73.82
2018-03-25T07:45:20.934Z,74.49
2018-03-25T07:46:20.954Z,74.11
2018-03-25T07:47:20.981Z,74.20
2018-03-25T07:48:21.007Z,73.82
2018-03-25T07:49:21.017Z,74.11
2018-03-25T07:50:21.043Z,73.44
2018-03-25T07:51:21.077Z,73.35
2018-03-25T07:52:21.093Z,73.25
2018-03-25T07:53:21.102Z,73.16
2018-03-25T07:54:21.134Z,72.40
2018-03-25T07:55:21.150Z,73.07
2018-03-25T07:56:21.172Z,73.25
2018-03-25T07:57:21.194Z,73.07
2018-03-25T07:58:21.222Z,73.44
2018-03-25T07:59:21.241Z,73.25
2018-03-25T08:00:21.257Z,73.25
2018-03-25T08:01:21.285Z,73.07
2018-03-25T08:02:21.309Z,72.97
2018-03-25T08:03:21.330Z,73.35
2018-03-25T08:04:21.351Z,72.59
2018-03-25T08:05:21.385Z,73.25
2018-03-25T08:06:21.393Z,72.78
2018-03-25T08:07:21.416Z,72.97
2018-03-25T08:08:21.453Z,72.88
2018-03-25T08:09:21.461Z,72.78
2018-03-25T08:10:21.473Z,72.78
2018-03-25T08:11:21.495Z,72.49
2018-03-25T08:12:21.521Z,72.72
2018-03-25T08:13:21.541Z,73.00
2018-03-25T08:14:21.572Z,72.63
2018-03-25T08:15:21.593Z,72.25
2018-03-25T08:16:21.622Z,71.96
2018-03-25T08:17:21.628Z,72.25
2018-03-25T08:18:21.658Z,71.77
2018-03-25T08:19:21.677Z,71.77
2018-03-25T08:20:21.698Z,71.77
2018-03-25T08:21:21.725Z,70.92
2018-03-25T08:22:21.749Z,71.11
2018-03-25T08:23:21.759Z,70.73
2018-03-25T08:24:21.799Z,70.63
2018-03-25T08:25:21.800Z,70.73
2018-03-25T08:26:21.832Z,70.95
2018-03-25T08:27:21.851Z,70.86
2018-03-25T08:28:21.886Z,70.86
2018-03-25T08:29:21.899Z,70.48
2018-03-25T08:30:21.919Z,70.29
2018-03-25T08:31:21.957Z,69.81
2018-03-25T08:32:21.959Z,69.81
2018-03-25T08:33:22.010Z,69.24
2018-03-25T08:34:22.016Z,69.37
2018-03-25T08:35:22.039Z,68.90
2018-03-25T08:36:22.053Z,68.33
2018-03-25T08:37:22.076Z,67.94
2018-03-25T08:38:22.097Z,67.47
2018-03-25T08:39:22.121Z,67.98
2018-03-25T08:40:22.171Z,67.13
2018-03-25T08:41:22.167Z,67.22
2018-03-25T08:42:22.307Z,65.47
2018-03-25T08:43:22.212Z,65.95
2018-03-25T08:44:22.247Z,65.09
2018-03-25T08:45:22.264Z,65.38
2018-03-25T08:46:22.304Z,65.47
2018-03-25T08:47:22.310Z,65.13
2018-03-25T08:48:22.340Z,64.65
2018-03-25T08:49:22.356Z,64.59
2018-03-25T08:50:22.409Z,62.88
2018-03-25T08:51:22.414Z,62.37
2018-03-25T08:52:22.445Z,63.04
2018-03-25T08:53:22.470Z,63.07
2018-03-25T08:54:22.477Z,62.62
2018-03-25T08:55:22.516Z,61.90
2018-03-25T08:56:22.532Z,61.22
2018-03-25T08:57:22.548Z,59.83
2018-03-25T08:58:22.575Z,59.54
2018-03-25T08:59:22.597Z,58.69
2018-03-25T09:00:22.635Z,57.54
2018-03-25T09:01:22.650Z,57.82
2018-03-25T09:02:22.685Z,57.73
2018-03-25T09:03:22.703Z,56.78
2018-03-25T09:04:22.725Z,56.52
2018-03-25T09:05:22.744Z,56.26
2018-03-25T09:06:22.840Z,55.79
2018-03-25T09:07:22.800Z,54.64
2018-03-25T09:08:22.822Z,54.10
2018-03-25T09:09:22.870Z,54.00
2018-03-25T09:10:22.877Z,52.98
2018-03-25T09:11:22.907Z,52.69
2018-03-25T09:12:22.930Z,52.50
2018-03-25T09:13:22.947Z,52.12
2018-03-25T09:14:22.979Z,51.83
2018-03-25T09:15:23.050Z,51.54
2018-03-25T09:16:23.031Z,51.38
2018-03-25T09:17:23.067Z,50.52
2018-03-25T09:18:23.080Z,50.52
2018-03-25T09:19:23.110Z,50.71
2018-03-25T09:20:23.144Z,49.11
2018-03-25T09:21:23.164Z,49.21
2018-03-25T09:22:23.185Z,48.09
2018-03-25T09:23:23.213Z,48.57
2018-03-25T09:24:23.246Z,47.25
2018-03-25T09:25:23.274Z,48.88
2018-03-25T09:26:23.290Z,49.64
2018-03-25T09:27:23.335Z,49.26
2018-03-25T09:28:23.364Z,49.42
2018-03-25T09:29:23.384Z,50.09
2018-03-25T09:30:23.418Z,50.07
2018-03-25T09:31:23.442Z,52.23
2018-03-25T09:32:23.459Z,53.47
2018-03-25T09:33:23.504Z,53.97
2018-03-25T09:34:23.528Z,52.19
2018-03-25T09:35:23.556Z,51.50
2018-03-25T09:36:23.575Z,51.66
2018-03-25T09:37:23.611Z,52.80
2018-03-25T09:38:23.639Z,53.50
2018-03-25T09:39:23.645Z,51.40
2018-03-25T09:40:23.676Z,52.59
2018-03-25T09:41:23.705Z,54.02
2018-03-25T09:42:23.733Z,54.66
2018-03-25T09:43:23.763Z,55.32
2018-03-25T09:44:23.787Z,54.97
2018-03-25T09:45:23.814Z,54.21
2018-03-25T09:46:23.882Z,53.50
2018-03-25T09:47:23.870Z,51.78
2018-03-25T09:48:23.919Z,50.92
2018-03-25T09:49:23.925Z,50.38
2018-03-25T09:50:23.962Z,49.52
2018-03-25T09:51:23.981Z,48.94
2018-03-25T09:52:24.007Z,49.35
2018-03-25T09:53:24.047Z,49.13
2018-03-25T09:54:24.959Z,49.71
2018-03-25T09:55:24.113Z,49.13
2018-03-25T09:56:24.121Z,48.30
2018-03-25T09:57:24.149Z,47.27
2018-03-25T09:58:24.211Z,46.42
2018-03-25T09:59:24.233Z,45.22
2018-03-25T10:00:24.235Z,44.02
2018-03-25T10:01:24.271Z,41.69
2018-03-25T10:02:24.296Z,39.72
2018-03-25T10:03:24.331Z,37.72
2018-03-25T10:04:24.361Z,36.76
2018-03-25T10:05:24.385Z,35.24
2018-03-25T10:06:24.410Z,34.49
2018-03-25T10:07:24.445Z,33.54
2018-03-25T10:08:24.486Z,32.21
2018-03-25T10:09:24.518Z,31.46
2018-03-25T10:10:24.554Z,30.98
2018-03-25T10:11:24.570Z,30.40
2018-03-25T10:12:24.598Z,29.63
2018-03-25T10:13:24.632Z,30.79
2018-03-25T10:14:24.685Z,30.24
2018-03-25T10:15:24.685Z,29.58
2018-03-25T10:16:24.902Z,28.14
2018-03-25T10:17:24.745Z,29.47
2018-03-25T10:18:24.774Z,33.45
2018-03-25T10:19:24.832Z,36.23
2018-03-25T10:20:24.847Z,39.84
2018-03-25T10:21:24.870Z,40.82
2018-03-25T10:22:24.909Z,39.92
2018-03-25T10:23:24.938Z,38.35
2018-03-25T10:24:24.984Z,35.83
2018-03-25T10:25:25.007Z,32.30
2018-03-25T10:26:25.030Z,33.47
2018-03-25T10:27:25.067Z,35.42
2018-03-25T10:28:25.096Z,33.15
2018-03-25T10:29:25.140Z,32.12
2018-03-25T10:30:25.156Z,30.73
2018-03-25T10:31:25.214Z,29.41
2018-03-25T10:32:25.224Z,28.07
2018-03-25T10:33:25.269Z,27.50
2018-03-25T10:34:25.326Z,26.07
2018-03-25T10:35:25.440Z,25.12
2018-03-25T10:36:25.379Z,24.74
2018-03-25T10:37:25.405Z,24.17
2018-03-25T10:38:25.432Z,23.59
2018-03-25T10:39:25.473Z,23.11
2018-03-25T10:40:25.502Z,22.63
2018-03-25T10:41:25.526Z,22.83
2018-03-25T10:42:25.562Z,22.26
2018-03-25T10:43:25.593Z,21.64
2018-03-25T10:44:25.643Z,24.56
2018-03-25T10:45:25.670Z,27.78
2018-03-25T10:46:25.718Z,29.40
2018-03-25T10:47:25.749Z,29.84
2018-03-25T10:48:25.785Z,27.57
2018-03-25T10:49:25.799Z,25.49
2018-03-25T10:50:25.840Z,25.75
2018-03-25T10:51:25.872Z,25.02
2018-03-25T10:52:25.911Z,24.81
2018-03-25T10:53:25.947Z,24.24
2018-03-25T10:54:25.986Z,22.91
2018-03-25T10:55:26.015Z,21.67
2018-03-25T10:56:26.042Z,23.60
2018-03-25T10:57:26.111Z,24.98
2018-03-25T10:58:26.121Z,26.94
2018-03-25T10:59:26.156Z,27.66
2018-03-25T11:00:26.257Z,27.51
2018-03-25T11:01:26.225Z,28.08
2018-03-25T11:02:26.252Z,29.03
2018-03-25T11:03:26.296Z,29.33
2018-03-25T11:04:26.338Z,28.04
2018-03-25T11:05:26.359Z,25.86
2018-03-25T11:06:26.447Z,23.86
2018-03-25T11:07:26.435Z,22.50
2018-03-25T11:08:26.499Z,24.02
2018-03-25T11:09:26.500Z,24.75
2018-03-25T11:10:26.541Z,26.17
2018-03-25T11:11:26.575Z,26.79
2018-03-25T11:12:26.641Z,25.99
2018-03-25T11:13:27.394Z,27.02
2018-03-25T11:14:26.683Z,29.49
2018-03-25T11:15:26.725Z,30.63
2018-03-25T11:16:26.760Z,30.23
2018-03-25T11:17:26.791Z,32.52
2018-03-25T11:18:26.827Z,32.54
2018-03-25T11:19:26.866Z,30.97
2018-03-25T11:20:26.907Z,28.61
2018-03-25T11:21:26.937Z,26.21
2018-03-25T11:22:26.971Z,25.92
2018-03-25T11:23:27.006Z,26.76
2018-03-25T11:24:27.044Z,27.13
2018-03-25T11:25:27.084Z,28.07
2018-03-25T11:26:27.130Z,29.67
2018-03-25T11:27:27.166Z,29.80
2018-03-25T11:28:27.185Z,29.07
2018-03-25T11:29:27.223Z,27.67
2018-03-25T11:30:27.268Z,25.10
2018-03-25T11:31:27.311Z,24.92
2018-03-25T11:32:27.330Z,27.95
2018-03-25T11:33:27.372Z,29.96
2018-03-25T11:34:27.405Z,30.57
2018-03-25T11:35:27.435Z,29.55
2018-03-25T11:36:27.475Z,28.75
2018-03-25T11:37:27.508Z,29.33
2018-03-25T11:38:27.563Z,27.96
2018-03-25T11:39:27.589Z,25.49
2018-03-25T11:40:27.647Z,23.88
2018-03-25T11:41:27.651Z,21.59
2018-03-25T11:43:27.757Z,21.01
2018-03-25T11:44:27.774Z,20.16
2018-03-25T11:45:27.803Z,19.88
2018-03-25T11:46:27.836Z,20.86
2018-03-25T11:47:27.887Z,23.10
2018-03-25T11:48:27.928Z,22.53
2018-03-25T11:49:27.957Z,21.40
2018-03-25T11:50:28.023Z,20.77
2018-03-25T11:51:28.026Z,22.23
2018-03-25T11:52:28.057Z,21.39
2018-03-25T11:53:28.093Z,20.78
2018-03-25T11:54:28.144Z,21.15
2018-03-25T11:55:28.169Z,23.61
2018-03-25T11:56:28.212Z,24.99
2018-03-25T11:57:28.260Z,23.57
2018-03-25T11:58:28.300Z,22.46
2018-03-25T11:59:28.315Z,26.15
2018-03-25T12:00:28.368Z,29.28
2018-03-25T12:01:28.400Z,31.00
2018-03-25T12:02:28.433Z,31.66
2018-03-25T12:03:28.471Z,31.79
2018-03-25T12:04:28.501Z,31.21
2018-03-25T12:05:28.690Z,31.59
2018-03-25T12:06:28.588Z,31.49
2018-03-25T12:07:28.612Z,31.29
2018-03-25T12:08:28.674Z,31.23
2018-03-25T12:09:28.674Z,30.58
2018-03-25T12:10:28.710Z,29.24
2018-03-25T12:11:28.755Z,28.80
2018-03-25T12:12:28.792Z,27.78
2018-03-25T12:13:28.832Z,30.33
2018-03-25T12:14:28.855Z,31.46
2018-03-25T12:15:28.920Z,33.00
2018-03-25T12:16:28.932Z,33.54
2018-03-25T12:17:28.963Z,35.55
2018-03-25T12:18:29.006Z,36.40
2018-03-25T12:19:29.040Z,37.13
2018-03-25T12:20:29.098Z,36.69
2018-03-25T12:21:29.102Z,36.71
2018-03-25T12:22:29.129Z,35.75
2018-03-25T12:23:29.177Z,35.53
2018-03-25T12:24:29.194Z,36.11
2018-03-25T12:25:29.222Z,36.71
2018-03-25T12:26:29.263Z,35.48
2018-03-25T12:27:29.301Z,35.67
2018-03-25T12:28:29.322Z,34.33
2018-03-25T12:29:29.352Z,34.02
2018-03-25T12:30:29.400Z,35.06
2018-03-25T12:31:29.433Z,36.59
2018-03-25T12:32:29.458Z,39.16
2018-03-25T12:33:29.486Z,40.14
2018-03-25T12:34:29.522Z,40.23
2018-03-25T12:35:29.545Z,38.68
2018-03-25T12:36:29.583Z,36.82
2018-03-25T12:37:29.631Z,38.07
2018-03-25T12:38:29.644Z,37.32
2018-03-25T12:39:29.678Z,37.23
2018-03-25T12:40:29.702Z,37.05
2018-03-25T12:41:29.736Z,37.05
2018-03-25T12:42:29.762Z,37.63
2018-03-25T12:43:29.792Z,36.38
2018-03-25T12:44:29.831Z,36.57
2018-03-25T12:45:29.860Z,36.47
2018-03-25T12:46:29.886Z,37.32
2018-03-25T12:47:29.912Z,37.90
2018-03-25T12:48:29.966Z,38.47
2018-03-25T12:49:29.968Z,38.49
2018-03-25T12:50:30.011Z,37.80
2018-03-25T12:51:30.031Z,39.50
2018-03-25T12:52:30.066Z,40.70
2018-03-25T12:53:30.098Z,42.16
2018-03-25T12:54:30.134Z,41.78